Time,TemperatureF,DewpointF,PressureIn,WindDirection,WindDirectionDegrees,WindSpeedMPH,WindSpeedGustMPH,Humidity,HourlyPrecipIn,Conditions,Clouds,dailyrainin,SoftwareType,DateUTC
2013-10-07 00:13:00,54.0,48.0,-100.00,WNW,300,4.0,7.0,79,-99.99,,,-99.99,,2013-10-07 04:13:00,
2013-10-07 00:24:00,54.0,48.0,-100.00,WNW,300,4.0,7.0,79,-99.99,,,-99.99,,2013-10-07 04:24:00,
2013-10-07 00:53:00,54.0,51.0,-100.00,NNW,340,4.0,7.0,90,-99.99,,,-99.99,,2013-10-07 04:53:00,
2013-10-07 01:13:00,53.0,50.0,-100.00,NNW,340,4.0,7.0,90,-99.99,,,-99.99,,2013-10-07 05:13:00,
2013-10-07 05:21:00,50.0,46.0,-100.00,North,350,6.0,-999.0,87,-99.99,,,-99.99,,2013-10-07 09:21:00,
2013-10-07 05:33:00,50.0,46.0,-100.00,North,350,6.0,-999.0,87,-99.99,,,-99.99,,2013-10-07 09:33:00,
2013-10-07 05:54:00,49.0,46.0,-100.00,North,355,6.0,11.0,90,-99.99,,,-99.99,,2013-10-07 09:54:00,
2013-10-07 06:13:00,49.0,46.0,-100.00,NNW,340,7.0,14.0,91,-99.99,,,-99.99,,2013-10-07 10:13:00,
2013-10-07 06:23:00,48.0,44.0,-100.00,North,350,6.0,11.0,85,-99.99,,,-99.99,,2013-10-07 10:23:00,
2013-10-07 06:30:00,48.0,46.0,-100.00,NW,320,6.0,10.0,93,-99.99,,,-99.99,,2013-10-07 10:30:00,
2013-10-07 07:22:00,48.0,46.0,-100.00,NW,320,6.0,10.0,93,-99.99,,,-99.99,,2013-10-07 11:22:00,
2013-10-07 08:52:00,48.0,46.0,-100.00,West,270,4.0,8.0,93,-99.99,,,-99.99,,2013-10-07 12:52:00,
2013-10-07 10:22:00,48.0,41.0,-100.00,WNW,300,6.0,12.0,78,-99.99,,,-99.99,,2013-10-07 14:22:00,
2013-10-07 11:22:00,51.0,50.0,-100.00,West,270,4.0,11.0,97,-99.99,,,-99.99,,2013-10-07 15:22:00,
2013-10-07 12:43:00,55.0,50.0,-100.00,WSW,250,5.0,14.0,84,-99.99,,,-99.99,,2013-10-07 16:43:00,
2013-10-07 12:53:00,55.0,50.0,-100.00,WSW,250,5.0,14.0,84,-99.99,,,-99.99,,2013-10-07 16:53:00,
2013-10-07 15:22:00,60.0,48.0,-100.00,WNW,300,9.0,16.0,64,-99.99,,,-99.99,,2013-10-07 19:22:00,
2013-10-07 16:22:00,60.0,44.0,-100.00,North,350,6.0,15.0,55,-99.99,,,-99.99,,2013-10-07 20:22:00,
2013-10-07 18:24:00,60.0,43.0,-100.00,NNW,340,5.0,13.0,55,-99.99,,,-99.99,,2013-10-07 22:24:00,
2013-10-07 18:53:00,59.0,42.0,-100.00,North,355,6.0,10.0,53,-99.99,,,-99.99,,2013-10-07 22:53:00,
2013-10-07 20:22:00,53.0,44.0,-100.00,NNW,330,4.0,8.0,70,-99.99,,,-99.99,,2013-10-08 00:22:00,
2013-10-07 23:22:00,43.0,36.0,-100.00,ENE,65,1.0,2.0,77,-99.99,,,-99.99,,2013-10-08 03:22:00,